Terminal Aerodrome Forecast
Issued by NWS Charleston, WV

Home | Current Version | Previous Version | Text Only | Print | Product List | Glossary On
Versions: 1 2 3 4 5 6 7 8 9 10 11 12 13 14 15 16 17 18 19 20 21 22 23 24 25 26
000
FTUS41 KRLX 232343
TAFPKB
TAF
KPKB 232343Z 2400/2424 20005KT P6SM -SHRA SCT025 OVC040
     FM240300 22010G13KT P6SM OVC020
     FM240500 22009KT P6SM OVC015
     FM241400 20011KT P6SM OVC045
     FM242100 22009KT P6SM SCT040
     FM242300 23008KT P6SM BKN045=

USA.gov is the U.S. government's official web portal to all federal, state and local government web resources and services.